Torrington, United Kingdom
Current Conditions -  °F | °C
As of 4:20 PM on Tuesday 21 Oct 2014 (Local Time) from EGTE Reporting Station
Rain Showers Rain Showers  
Wind Chill: 54°   Ceiling: Unl
Heat Index: 54°   Visibility: 6mi
Dew Point: 41°   Wind: 28mph
Humidity: 62%   Direction: 300°WNW
Pressure: 30"   Gusts: NA
Location:  50.95°N, 4.15°W
Report Text: EGTE 211520Z 30024KT 9999 VCSH SCT025CB 12/05 Q1016
Loading
Personal Weather Stations






























Interactive Weather Map
Tropical Storm Tracking
New forecast layout! Learn more

10-Day Weather Forecast

Advertisements
Track Severe Weather on mobile